Time;durP1;ratioP1;P1;durP2;ratioP2;P2;SDS_P1;SDS_P2;PMS_P1;PMS_P2;Temp;Humidity;BMP_temperature;BMP_pressure;BME280_temperature;BME280_humidity;BME280_pressure;Samples;Min_cycle;Max_cycle;Signal;HPM_P1;HPM_P2
2023/03/28 00:00:43;;;;;;;5.97;1.20;;;;;;;6.10;56.11;101544.16;5055858;28;20212;-65
2023/03/28 00:03:13;;;;;;;3.77;1.30;;;;;;;6.06;56.35;101545.31;5056327;28;20209;-62
2023/03/28 00:05:41;;;;;;;5.40;1.30;;;;;;;6.03;56.33;101548.97;5055151;28;20588;-63
2023/03/28 00:08:10;;;;;;;4.10;1.50;;;;;;;5.99;56.35;101543.03;5053680;28;20242;-63
2023/03/28 00:10:41;;;;;;;5.70;1.30;;;;;;;5.99;56.28;101552.69;5053829;28;20218;-61
2023/03/28 00:13:09;;;;;;;3.80;1.30;;;;;;;5.96;56.41;101558.19;5057243;28;20211;-67
2023/03/28 00:15:38;;;;;;;2.50;1.07;;;;;;;5.91;56.62;101554.94;5055490;28;20229;-65
2023/03/28 00:18:07;;;;;;;12.97;1.53;;;;;;;5.95;56.64;101562.59;5051606;28;20208;-61
2023/03/28 00:20:39;;;;;;;6.63;1.37;;;;;;;5.94;56.53;101566.16;5052296;28;20207;-62
2023/03/28 00:23:08;;;;;;;7.23;1.30;;;;;;;5.98;56.35;101575.56;5053168;28;20324;-62
2023/03/28 00:25:39;;;;;;;12.73;1.20;;;;;;;5.99;56.13;101579.03;5056193;28;20314;-63
2023/03/28 00:28:12;;;;;;;7.17;1.03;;;;;;;5.94;56.22;101576.69;5051358;28;20232;-63
2023/03/28 00:30:42;;;;;;;3.57;1.13;;;;;;;5.90;56.51;101574.31;5054897;28;20211;-62
2023/03/28 00:33:13;;;;;;;4.57;1.33;;;;;;;5.84;56.88;101575.50;5055736;28;20226;-64
2023/03/28 00:35:42;;;;;;;5.00;1.37;;;;;;;5.83;56.86;101573.81;5052512;28;20282;-62
2023/03/28 00:38:12;;;;;;;6.80;1.13;;;;;;;5.88;56.66;101576.22;5051441;28;20735;-63
2023/03/28 00:40:40;;;;;;;8.23;1.67;;;;;;;5.88;56.82;101576.22;5055303;28;20835;-62
2023/03/28 00:43:13;;;;;;;2.97;1.13;;;;;;;5.91;56.64;101582.13;5054102;28;20208;-62
2023/03/28 00:45:41;;;;;;;6.90;1.57;;;;;;;5.87;56.83;101582.38;5050374;28;20211;-64
2023/03/28 00:48:14;;;;;;;3.27;1.10;;;;;;;5.88;56.77;101577.06;5055024;28;20227;-64
2023/03/28 00:50:47;;;;;;;8.77;1.53;;;;;;;5.89;56.75;101583.19;5054741;28;20208;-64
2023/03/28 00:53:18;;;;;;;7.27;1.90;;;;;;;5.94;56.35;101589.00;5053863;28;20540;-65
2023/03/28 00:55:50;;;;;;;5.73;1.40;;;;;;;6.04;56.08;101587.53;5054106;28;20207;-64
2023/03/28 00:58:23;;;;;;;3.27;1.00;;;;;;;6.01;56.07;101583.28;5050579;28;20211;-62
2023/03/28 01:00:50;;;;;;;5.63;1.40;;;;;;;5.95;56.19;101578.38;5051358;28;20216;-64
2023/03/28 01:03:21;;;;;;;4.17;1.10;;;;;;;5.90;56.31;101590.13;5050008;28;20216;-65
2023/03/28 01:05:51;;;;;;;4.40;1.20;;;;;;;6.03;55.79;101585.81;5056373;28;20748;-64
2023/03/28 01:08:21;;;;;;;5.67;1.20;;;;;;;6.12;55.69;101585.28;5051968;28;20231;-65
2023/03/28 01:10:49;;;;;;;9.27;1.33;;;;;;;6.12;55.97;101587.06;5053529;28;20208;-64
2023/03/28 01:13:21;;;;;;;3.50;1.30;;;;;;;5.94;56.04;101575.84;5051231;28;20229;-63
2023/03/28 01:15:50;;;;;;;5.17;1.37;;;;;;;5.85;56.59;101576.34;5053735;28;20668;-65
2023/03/28 01:18:21;;;;;;;4.57;1.80;;;;;;;5.62;57.14;101578.56;5051907;28;20210;-65
2023/03/28 01:21:14;;;;;;;5.97;1.50;;;;;;;5.43;57.67;101585.84;5053250;28;20804;-63
2023/03/28 01:24:11;;;;;;;7.60;1.63;;;;;;;5.51;57.55;101585.38;5052899;28;20820;-62
2023/03/28 01:26:49;;;;;;;5.40;1.30;;;;;;;5.65;57.06;101588.91;5049563;28;20575;-62
2023/03/28 01:29:43;;;;;;;6.60;1.60;;;;;;;5.67;56.67;101584.41;5049386;28;20231;-63
2023/03/28 01:32:50;;;;;;;4.00;1.00;;;;;;;5.62;56.83;101591.72;5050954;28;20999;-64
2023/03/28 01:35:43;;;;;;;3.70;1.33;;;;;;;5.60;57.07;101588.34;5051682;28;20213;-62
2023/03/28 01:38:20;;;;;;;4.13;1.33;;;;;;;5.46;57.42;101593.53;5052544;28;20246;-62
2023/03/28 01:40:57;;;;;;;4.37;1.10;;;;;;;5.40;57.73;101599.16;5050310;28;20656;-62
2023/03/28 01:43:32;;;;;;;8.53;1.40;;;;;;;5.39;57.67;101600.06;5052594;28;20301;-64
2023/03/28 01:46:07;;;;;;;4.67;1.30;;;;;;;5.36;57.76;101600.28;5052380;28;20211;-64
2023/03/28 01:48:43;;;;;;;4.83;1.20;;;;;;;5.35;57.99;101603.00;5049994;28;20325;-63
2023/03/28 01:51:19;;;;;;;10.97;2.27;;;;;;;5.33;57.95;101600.44;5054413;28;20999;-63
2023/03/28 01:53:57;;;;;;;2.20;1.00;;;;;;;5.28;58.19;101603.31;5052832;28;20667;-62
2023/03/28 01:56:36;;;;;;;4.23;1.33;;;;;;;5.23;58.46;101609.78;5050444;28;20207;-63
2023/03/28 01:59:12;;;;;;;5.27;1.40;;;;;;;5.29;58.05;101602.38;5051311;28;20267;-64
2023/03/28 02:01:47;;;;;;;8.50;1.40;;;;;;;5.30;58.21;101613.75;5049639;28;21114;-63
2023/03/28 02:04:19;;;;;;;6.13;1.47;;;;;;;5.25;58.02;101614.03;5051095;28;20218;-64
2023/03/28 02:06:50;;;;;;;10.03;1.43;;;;;;;5.25;58.19;101613.19;5049586;28;20215;-62
2023/03/28 02:09:23;;;;;;;4.20;1.30;;;;;;;5.22;58.04;101608.94;5048513;28;20650;-62
2023/03/28 02:11:57;;;;;;;3.77;1.30;;;;;;;5.27;57.99;101608.69;5049353;28;20258;-63
2023/03/28 02:14:30;;;;;;;4.37;1.17;;;;;;;5.20;58.41;101609.94;5049164;28;20216;-62
2023/03/28 02:17:03;;;;;;;3.97;0.93;;;;;;;5.15;58.51;101606.72;5050730;28;20209;-62
2023/03/28 02:19:36;;;;;;;6.00;1.30;;;;;;;5.14;58.39;101605.88;5050669;28;20242;-64
2023/03/28 02:22:15;;;;;;;12.33;1.63;;;;;;;5.15;58.55;101598.84;5051882;28;20220;-64
2023/03/28 02:24:49;;;;;;;7.00;1.60;;;;;;;5.19;58.36;101603.00;5050509;28;20682;-64
2023/03/28 02:27:17;;;;;;;5.67;1.30;;;;;;;5.20;58.01;101599.41;5048472;28;20321;-63
2023/03/28 02:29:44;;;;;;;5.40;1.30;;;;;;;5.14;58.06;101595.38;5051109;28;20237;-64
2023/03/28 02:32:13;;;;;;;7.70;1.47;;;;;;;5.17;58.24;101594.34;5049669;28;20263;-63
2023/03/28 02:34:41;;;;;;;6.03;1.60;;;;;;;5.11;58.47;101597.31;5049514;28;20218;-63
2023/03/28 02:37:21;;;;;;;5.93;1.30;;;;;;;5.04;58.89;101598.59;5052414;28;20244;-63
2023/03/28 02:40:02;;;;;;;4.93;1.43;;;;;;;5.00;58.97;101597.94;5052463;28;20292;-63
2023/03/28 02:42:58;;;;;;;7.43;1.67;;;;;;;4.96;59.16;101606.91;5041485;28;20203;-62
2023/03/28 02:45:51;;;;;;;2.07;0.93;;;;;;;4.89;59.50;101614.28;5051238;28;20702;-62
2023/03/28 02:48:29;;;;;;;8.43;1.83;;;;;;;4.89;59.46;101606.41;5047804;28;20259;-64
2023/03/28 02:51:09;;;;;;;11.97;1.73;;;;;;;4.87;59.36;101608.25;5051473;28;20225;-62
2023/03/28 02:53:43;;;;;;;4.83;1.37;;;;;;;4.83;59.82;101603.25;5051612;28;20210;-62
2023/03/28 02:56:18;;;;;;;5.47;1.53;;;;;;;4.80;59.92;101601.66;5051188;28;20211;-63
2023/03/28 02:58:51;;;;;;;4.43;1.30;;;;;;;4.80;59.91;101609.53;5054117;28;20206;-64
2023/03/28 03:01:19;;;;;;;5.53;1.73;;;;;;;4.77;60.19;101607.06;5050062;28;20210;-64
2023/03/28 03:03:48;;;;;;;4.53;1.30;;;;;;;4.85;59.88;101604.84;5051119;28;20220;-64
2023/03/28 03:06:16;;;;;;;6.63;1.70;;;;;;;4.89;59.66;101603.78;5047304;28;20206;-63
2023/03/28 03:08:44;;;;;;;5.50;1.60;;;;;;;4.91;59.48;101609.81;5050548;28;20569;-64
2023/03/28 03:11:14;;;;;;;8.77;1.70;;;;;;;4.96;59.38;101603.41;5052017;28;20263;-64
2023/03/28 03:13:42;;;;;;;3.27;1.50;;;;;;;4.98;59.24;101598.94;5049809;28;20221;-62
2023/03/28 03:16:13;;;;;;;3.13;1.40;;;;;;;5.06;58.90;101597.56;5051027;28;20307;-61
2023/03/28 03:18:41;;;;;;;6.10;1.23;;;;;;;5.18;58.76;101602.16;5054934;28;20213;-61
2023/03/28 03:21:09;;;;;;;9.03;1.30;;;;;;;5.12;58.99;101599.00;5057902;28;20209;-59
2023/03/28 03:23:36;;;;;;;2.73;1.30;;;;;;;5.09;59.00;101593.94;5053613;28;20651;-59
2023/03/28 03:26:05;;;;;;;7.83;1.37;;;;;;;5.04;59.21;101599.44;5053260;28;20303;-61
2023/03/28 03:28:34;;;;;;;3.90;1.30;;;;;;;5.01;59.13;101598.78;5054173;28;20205;-60
2023/03/28 03:31:02;;;;;;;7.17;1.37;;;;;;;5.01;59.11;101601.41;5052985;28;20229;-60
2023/03/28 03:33:29;;;;;;;3.87;1.40;;;;;;;5.00;59.11;101603.19;5055319;28;20264;-61
2023/03/28 03:35:59;;;;;;;6.63;1.70;;;;;;;5.00;58.92;101602.34;5053352;28;20211;-60
2023/03/28 03:38:27;;;;;;;4.87;1.20;;;;;;;5.01;58.84;101599.63;5053587;28;20673;-60
2023/03/28 03:40:55;;;;;;;4.27;1.37;;;;;;;5.00;59.15;101599.72;5051573;28;20211;-61
2023/03/28 03:43:23;;;;;;;4.40;1.30;;;;;;;4.98;58.97;101593.69;5054802;28;20226;-59
2023/03/28 03:45:51;;;;;;;3.57;1.17;;;;;;;4.97;59.19;101597.22;5051567;28;20274;-59
2023/03/28 03:48:19;;;;;;;6.93;1.40;;;;;;;4.93;59.47;101596.53;5052707;28;20217;-60
2023/03/28 03:50:51;;;;;;;6.47;1.70;;;;;;;4.96;59.61;101592.91;5050462;28;20231;-60
2023/03/28 03:53:19;;;;;;;7.17;1.47;;;;;;;4.93;59.13;101597.41;5053410;28;20668;-60
2023/03/28 03:55:47;;;;;;;4.77;1.30;;;;;;;4.92;59.54;101600.13;5053694;28;20206;-60
2023/03/28 03:58:17;;;;;;;5.90;1.60;;;;;;;4.88;59.17;101602.06;5054916;28;20214;-61
2023/03/28 04:00:47;;;;;;;5.80;1.33;;;;;;;4.87;59.30;101605.63;5056698;28;20203;-60
2023/03/28 04:03:17;;;;;;;5.87;1.60;;;;;;;4.86;59.36;101611.81;5054425;28;20207;-60
2023/03/28 04:05:53;;;;;;;9.43;2.63;;;;;;;4.83;59.52;101614.63;5057092;28;20248;-60
2023/03/28 04:08:22;;;;;;;8.50;1.90;;;;;;;4.79;59.69;101610.47;5055546;28;20808;-60
2023/03/28 04:10:49;;;;;;;7.47;1.43;;;;;;;4.79;59.29;101609.59;5057644;28;20655;-59
2023/03/28 04:13:17;;;;;;;7.10;1.27;;;;;;;4.75;59.43;101614.16;5058516;28;20211;-59
2023/03/28 04:15:46;;;;;;;7.93;1.43;;;;;;;4.70;59.56;101615.34;5051564;28;20221;-58
2023/03/28 04:18:16;;;;;;;12.90;1.63;;;;;;;4.66;59.80;101612.03;5058726;28;20714;-60
2023/03/28 04:20:52;;;;;;;6.93;1.40;;;;;;;4.62;60.04;101614.94;5057288;28;20215;-60
2023/03/28 04:23:24;;;;;;;8.37;1.90;;;;;;;4.64;60.15;101616.56;5058861;28;20210;-59
2023/03/28 04:25:54;;;;;;;9.17;2.10;;;;;;;4.61;59.84;101614.06;5058417;28;20203;-60
2023/03/28 04:28:24;;;;;;;6.40;1.57;;;;;;;4.65;59.80;101623.50;5056850;28;20218;-59
2023/03/28 04:30:57;;;;;;;8.97;1.50;;;;;;;4.69;59.67;101622.38;5057111;28;20337;-58
2023/03/28 04:33:26;;;;;;;7.20;1.53;;;;;;;4.73;59.61;101623.94;5060493;28;20223;-60
2023/03/28 04:35:58;;;;;;;4.77;1.60;;;;;;;4.68;59.71;101628.56;5059855;28;20221;-60
2023/03/28 04:38:28;;;;;;;14.00;2.13;;;;;;;4.61;59.80;101631.63;5058325;28;20612;-60
2023/03/28 04:40:57;;;;;;;5.47;1.80;;;;;;;4.53;59.83;101625.00;5055648;28;20220;-60
2023/03/28 04:43:25;;;;;;;5.63;1.80;;;;;;;4.52;59.63;101628.56;5060128;28;20219;-60
2023/03/28 04:45:53;;;;;;;3.67;1.40;;;;;;;4.43;60.01;101625.56;5058727;28;20243;-60
2023/03/28 04:48:26;;;;;;;7.40;1.33;;;;;;;4.41;59.82;101632.66;5059836;28;20237;-60
2023/03/28 04:50:57;;;;;;;5.17;1.40;;;;;;;4.38;59.74;101636.31;5061127;28;20227;-60
2023/03/28 04:53:25;;;;;;;10.50;2.10;;;;;;;4.43;59.52;101636.06;5057555;28;20214;-59
2023/03/28 04:55:53;;;;;;;4.00;1.33;;;;;;;4.44;59.57;101651.75;5058916;28;20213;-59
2023/03/28 04:58:23;;;;;;;4.07;1.00;;;;;;;4.45;59.29;101644.72;5056327;28;20243;-59
2023/03/28 05:00:51;;;;;;;5.20;1.53;;;;;;;4.40;59.45;101651.97;5058338;28;20206;-59
2023/03/28 05:03:21;;;;;;;5.47;1.23;;;;;;;4.38;59.42;101649.44;5056902;28;20668;-59
2023/03/28 05:05:51;;;;;;;13.37;1.87;;;;;;;4.38;59.58;101652.06;5058584;28;20255;-60
2023/03/28 05:08:22;;;;;;;5.17;1.33;;;;;;;4.39;59.87;101659.03;5057326;28;20226;-59
2023/03/28 05:10:50;;;;;;;7.47;1.97;;;;;;;4.38;59.87;101653.84;5057119;28;20240;-59
2023/03/28 05:13:18;;;;;;;5.40;1.77;;;;;;;4.35;60.03;101654.00;5058413;28;20201;-61
2023/03/28 05:15:47;;;;;;;5.93;1.83;;;;;;;4.39;59.74;101658.19;5059366;28;20565;-58
2023/03/28 05:18:15;;;;;;;9.37;1.70;;;;;;;4.42;59.71;101661.47;5057163;28;20646;-60
2023/03/28 05:20:43;;;;;;;8.00;2.17;;;;;;;4.46;59.47;101670.06;5050922;28;20205;-60
2023/03/28 05:23:10;;;;;;;9.47;2.13;;;;;;;4.37;59.46;101671.38;5057585;28;20202;-60
2023/03/28 05:25:40;;;;;;;14.33;2.00;;;;;;;4.43;59.45;101670.22;5056238;28;20293;-60
2023/03/28 05:28:07;;;;;;;9.73;2.50;;;;;;;4.47;59.35;101671.75;5054053;28;20202;-60
2023/03/28 05:30:35;;;;;;;7.60;2.00;;;;;;;4.41;59.52;101669.44;5057674;28;20751;-60
2023/03/28 05:33:03;;;;;;;7.67;2.47;;;;;;;4.33;60.17;101675.09;5057652;28;20214;-59
2023/03/28 05:35:36;;;;;;;10.13;2.33;;;;;;;4.29;60.30;101677.97;5057943;28;20255;-60
2023/03/28 05:38:04;;;;;;;7.20;2.60;;;;;;;4.29;60.78;101677.97;5056338;28;20777;-58
2023/03/28 05:40:32;;;;;;;6.40;2.30;;;;;;;4.25;60.67;101682.50;5058017;28;20296;-59
2023/03/28 05:43:01;;;;;;;12.43;2.57;;;;;;;4.15;61.20;101682.13;5056575;28;20297;-60
2023/03/28 05:45:28;;;;;;;9.10;2.67;;;;;;;4.24;61.05;101693.09;5055699;28;20792;-59
2023/03/28 05:47:56;;;;;;;8.23;2.90;;;;;;;4.31;60.59;101697.13;5056486;28;20567;-60
2023/03/28 05:50:25;;;;;;;12.30;3.17;;;;;;;4.35;60.67;101696.03;5056459;28;20213;-60
2023/03/28 05:52:53;;;;;;;12.00;3.60;;;;;;;4.38;60.71;101688.84;5057223;28;20296;-59
2023/03/28 05:55:20;;;;;;;10.57;3.07;;;;;;;4.43;60.09;101691.22;5056305;28;20218;-60
2023/03/28 05:57:48;;;;;;;7.17;2.90;;;;;;;4.53;59.70;101702.94;5056613;28;20207;-59
2023/03/28 06:00:19;;;;;;;8.30;2.67;;;;;;;4.60;59.52;101706.97;5056690;28;20251;-61
2023/03/28 06:02:49;;;;;;;7.23;2.90;;;;;;;4.61;59.58;101706.03;5058453;28;20217;-59
2023/03/28 06:05:17;;;;;;;5.77;2.30;;;;;;;4.60;59.95;101701.69;5054378;28;20206;-59
2023/03/28 06:07:45;;;;;;;7.33;2.53;;;;;;;4.58;59.97;101706.19;5056165;28;20299;-60
2023/03/28 06:10:14;;;;;;;9.23;2.60;;;;;;;4.66;60.02;101709.25;5058239;28;20388;-59
2023/03/28 06:12:42;;;;;;;7.47;2.37;;;;;;;4.76;59.50;101707.00;5055119;28;20240;-59
2023/03/28 06:15:11;;;;;;;8.03;2.27;;;;;;;4.75;59.90;101719.28;5058678;28;20217;-60
2023/03/28 06:17:40;;;;;;;7.60;3.00;;;;;;;4.87;59.27;101718.66;5057353;28;20276;-60
2023/03/28 06:20:09;;;;;;;7.17;2.67;;;;;;;4.96;59.17;101709.44;5057088;28;20660;-60
2023/03/28 06:22:37;;;;;;;9.70;3.20;;;;;;;4.99;58.99;101711.06;5053257;28;20318;-61
2023/03/28 06:25:06;;;;;;;9.57;3.30;;;;;;;4.95;59.41;101710.34;5056342;28;20214;-61
2023/03/28 06:27:34;;;;;;;9.80;2.77;;;;;;;5.00;59.33;101715.38;5054885;28;20210;-60
2023/03/28 06:30:03;;;;;;;9.67;3.10;;;;;;;5.02;59.21;101721.38;5054460;28;20575;-60
2023/03/28 06:32:31;;;;;;;14.53;2.53;;;;;;;5.01;59.31;101719.72;5056174;28;20288;-60
2023/03/28 06:35:00;;;;;;;9.33;3.13;;;;;;;5.03;59.31;101721.31;5057590;28;20214;-60
2023/03/28 06:37:28;;;;;;;14.27;3.10;;;;;;;5.09;58.93;101722.78;5054793;28;20246;-60
2023/03/28 06:39:56;;;;;;;9.43;3.10;;;;;;;5.17;58.66;101731.09;5053930;28;20870;-61
2023/03/28 06:42:24;;;;;;;8.17;2.80;;;;;;;5.18;58.51;101724.91;5055149;28;20297;-59
2023/03/28 06:44:51;;;;;;;12.20;2.50;;;;;;;5.25;58.56;101728.91;5054474;28;20972;-60
2023/03/28 06:47:19;;;;;;;11.23;2.77;;;;;;;5.24;58.44;101727.19;5055712;28;20211;-60
2023/03/28 06:49:47;;;;;;;8.87;2.43;;;;;;;5.34;58.23;101728.41;5052911;28;20215;-60
2023/03/28 06:52:16;;;;;;;13.00;2.23;;;;;;;5.40;57.79;101725.41;5056303;28;20235;-59
2023/03/28 06:54:44;;;;;;;5.27;2.07;;;;;;;5.36;58.90;101731.81;5056670;28;20476;-59
2023/03/28 06:57:15;;;;;;;6.77;2.23;;;;;;;5.38;59.37;101729.91;5058105;28;20246;-61
2023/03/28 06:59:43;;;;;;;10.20;2.30;;;;;;;5.41;58.82;101724.50;5058318;28;20616;-60
2023/03/28 07:02:11;;;;;;;5.67;1.90;;;;;;;5.48;58.96;101731.09;5055000;28;20211;-60
2023/03/28 07:04:39;;;;;;;10.63;2.70;;;;;;;5.55;58.87;101732.44;5054661;28;20664;-61
2023/03/28 07:07:08;;;;;;;8.60;1.97;;;;;;;5.61;58.88;101732.13;5053283;28;20213;-60
2023/03/28 07:09:37;;;;;;;9.50;2.20;;;;;;;5.65;58.76;101732.78;5055658;28;20315;-60
2023/03/28 07:12:06;;;;;;;5.93;2.57;;;;;;;5.71;58.51;101732.47;5053861;28;20227;-60
2023/03/28 07:14:33;;;;;;;9.80;2.23;;;;;;;5.80;57.99;101741.63;5054086;28;20202;-58
2023/03/28 07:17:01;;;;;;;10.03;2.63;;;;;;;5.85;57.99;101737.78;5054866;28;20212;-59
2023/03/28 07:22:20;;;;;;;7.00;2.90;;;;;;;5.94;58.84;101739.94;5053834;28;20246;-60
2023/03/28 07:24:49;;;;;;;7.87;2.73;;;;;;;6.01;58.79;101736.00;5056000;28;20222;-60
2023/03/28 07:27:17;;;;;;;7.77;2.83;;;;;;;6.17;58.40;101745.66;5054536;28;20230;-60
2023/03/28 07:29:45;;;;;;;5.43;2.60;;;;;;;6.24;58.38;101754.91;5055561;28;20207;-60
2023/03/28 07:32:13;;;;;;;8.40;2.90;;;;;;;6.33;58.04;101751.75;5052334;28;21388;-62
2023/03/28 07:34:40;;;;;;;11.93;3.27;;;;;;;6.41;57.94;101760.91;5056743;28;20207;-60
2023/03/28 07:37:09;;;;;;;5.60;2.90;;;;;;;6.50;57.67;101764.78;5057437;28;20257;-61
2023/03/28 07:39:38;;;;;;;6.10;2.70;;;;;;;6.61;56.98;101766.75;5055696;28;20237;-59
2023/03/28 07:42:10;;;;;;;10.20;3.77;;;;;;;6.69;56.79;101765.34;5053362;28;20261;-60
2023/03/28 07:44:37;;;;;;;7.13;3.07;;;;;;;6.75;56.48;101765.00;5053079;28;20492;-59
2023/03/28 07:47:09;;;;;;;9.50;2.70;;;;;;;6.83;56.00;101767.19;5058389;28;20218;-60
2023/03/28 07:49:38;;;;;;;5.67;2.63;;;;;;;6.86;55.70;101772.25;5057337;28;20600;-59
2023/03/28 07:52:06;;;;;;;7.27;2.30;;;;;;;6.87;55.60;101773.94;5056938;28;20286;-60
2023/03/28 07:54:33;;;;;;;9.47;2.57;;;;;;;6.91;55.64;101767.56;5056783;28;20372;-60
2023/03/28 07:57:01;;;;;;;7.10;2.07;;;;;;;7.07;55.20;101775.38;5061298;28;20227;-60
2023/03/28 07:59:31;;;;;;;7.77;2.40;;;;;;;7.18;55.23;101778.22;5058871;28;20213;-59
2023/03/28 08:01:58;;;;;;;6.83;1.90;;;;;;;7.26;54.10;101775.09;5059003;28;20420;-59
2023/03/28 08:04:26;;;;;;;7.93;1.77;;;;;;;7.37;54.00;101778.78;5057921;28;20219;-58
2023/03/28 08:06:54;;;;;;;8.23;1.80;;;;;;;7.52;52.74;101777.81;5059032;28;20215;-60
2023/03/28 08:09:22;;;;;;;10.67;1.60;;;;;;;7.66;51.91;101784.84;5059132;28;20231;-60
2023/03/28 08:11:50;;;;;;;5.23;1.63;;;;;;;7.75;50.76;101786.88;5058914;28;20209;-59
2023/03/28 08:14:18;;;;;;;5.47;1.43;;;;;;;7.86;50.21;101780.94;5057501;28;20254;-60
2023/03/28 08:16:47;;;;;;;7.30;1.67;;;;;;;7.89;50.11;101784.22;5058561;28;20217;-60
2023/03/28 08:19:15;;;;;;;8.53;1.90;;;;;;;7.91;49.94;101779.69;5057145;28;20210;-60
2023/03/28 08:21:43;;;;;;;7.70;1.67;;;;;;;8.05;50.51;101776.16;5058711;28;20214;-59
2023/03/28 08:24:11;;;;;;;8.73;1.73;;;;;;;8.27;49.79;101775.56;5057458;28;20206;-60
2023/03/28 08:26:52;;;;;;;9.17;1.47;;;;;;;8.51;49.19;101774.00;5058080;28;20267;-59
2023/03/28 08:29:20;;;;;;;7.23;1.43;;;;;;;8.72;47.83;101776.09;5058569;28;20210;-64
2023/03/28 08:31:49;;;;;;;9.00;1.70;;;;;;;9.09;47.30;101777.91;5059221;28;20215;-59
2023/03/28 08:34:17;;;;;;;5.30;1.37;;;;;;;9.48;46.47;101766.34;5057278;28;20220;-60
2023/03/28 08:36:45;;;;;;;11.00;2.03;;;;;;;9.92;45.92;101775.53;5059397;28;20680;-60
2023/03/28 08:39:13;;;;;;;6.57;1.40;;;;;;;10.64;44.67;101776.31;5056966;28;20329;-61
2023/03/28 08:41:57;;;;;;;6.87;1.40;;;;;;;11.91;41.66;101779.47;5057115;28;20570;-61
2023/03/28 08:44:40;;;;;;;7.50;1.77;;;;;;;13.94;38.32;101776.16;5057005;28;20254;-60
2023/03/28 08:47:14;;;;;;;9.83;2.40;;;;;;;16.17;33.99;101783.41;5058170;28;20207;-59
2023/03/28 08:49:46;;;;;;;8.33;1.77;;;;;;;18.22;30.39;101775.31;5056858;28;20208;-60
2023/03/28 08:52:15;;;;;;;12.77;1.80;;;;;;;19.77;28.71;101778.59;5056261;28;20208;-61
2023/03/28 08:54:47;;;;;;;9.07;1.80;;;;;;;21.58;26.47;101773.06;5058348;28;20216;-60
2023/03/28 08:57:19;;;;;;;5.63;1.10;;;;;;;23.37;24.07;101769.09;5055284;28;20210;-61
2023/03/28 08:59:55;;;;;;;7.40;1.70;;;;;;;25.33;21.81;101776.84;5056443;28;20203;-60
2023/03/28 09:02:28;;;;;;;15.70;1.40;;;;;;;27.01;20.40;101770.75;5046967;28;20206;-60
2023/03/28 09:04:58;;;;;;;7.03;1.63;;;;;;;27.99;18.87;101774.16;5055804;28;20298;-61
2023/03/28 09:07:54;;;;;;;6.33;1.67;;;;;;;28.32;18.24;101772.88;5056921;28;20219;-60
2023/03/28 09:10:28;;;;;;;5.60;1.63;;;;;;;26.81;19.23;101772.84;5054777;28;20208;-60
2023/03/28 09:13:06;;;;;;;8.90;1.50;;;;;;;28.02;18.17;101775.59;5056948;28;20245;-61
2023/03/28 09:15:46;;;;;;;4.10;1.13;;;;;;;29.49;16.86;101769.06;5057787;28;20203;-60
2023/03/28 09:18:36;;;;;;;7.50;1.45;;;;;;;30.57;16.00;101759.88;5055372;28;20210;-61
2023/03/28 09:21:13;;;;;;;4.40;1.40;;;;;;;30.91;15.88;101760.66;5057937;28;20265;-59
2023/03/28 09:23:54;;;;;;;7.38;1.70;;;;;;;31.52;15.07;101755.97;5056525;28;20222;-61
2023/03/28 09:26:25;;;;;;;5.38;1.70;;;;;;;31.76;15.33;101757.38;5056960;28;20207;-60
2023/03/28 09:28:59;;;;;;;10.07;2.80;;;;;;;32.62;15.25;101753.78;5056608;28;20277;-59
2023/03/28 09:31:32;;;;;;;5.00;1.52;;;;;;;33.07;14.73;101748.56;5055116;28;20213;-61
2023/03/28 09:34:03;;;;;;;7.25;2.15;;;;;;;31.73;15.02;101740.63;5057008;28;20216;-60
2023/03/28 09:36:32;;;;;;;7.28;1.92;;;;;;;30.89;15.50;101746.38;5056931;28;20224;-60
2023/03/28 09:39:23;;;;;;;6.47;2.00;;;;;;;30.68;15.44;101741.69;5054619;28;20578;-61
2023/03/28 09:41:57;;;;;;;12.45;2.28;;;;;;;30.89;15.70;101729.94;5057614;28;20578;-60
2023/03/28 09:44:30;;;;;;;4.97;1.27;;;;;;;31.16;15.01;101721.00;5055466;28;20210;-61
2023/03/28 09:47:10;;;;;;;6.30;1.30;;;;;;;31.66;14.21;101724.38;5059278;28;20203;-60
2023/03/28 09:49:40;;;;;;;4.88;1.27;;;;;;;33.66;13.14;101709.75;5054786;28;20204;-61
2023/03/28 09:52:15;;;;;;;5.45;1.52;;;;;;;35.72;12.07;101708.81;5054924;28;20258;-60
2023/03/28 09:54:43;;;;;;;5.75;1.20;;;;;;;36.87;11.29;101708.88;5054175;28;20219;-62
2023/03/28 09:57:11;;;;;;;5.63;1.70;;;;;;;36.68;11.06;101708.00;5055332;28;20200;-60
2023/03/28 09:59:39;;;;;;;5.10;1.48;;;;;;;35.09;11.92;101716.84;5055971;28;20604;-60
2023/03/28 10:02:26;;;;;;;5.15;1.65;;;;;;;33.31;12.81;101712.44;5053255;28;20217;-59
2023/03/28 10:04:55;;;;;;;5.40;1.58;;;;;;;32.50;13.93;101718.25;5057074;28;20280;-59
2023/03/28 10:07:32;;;;;;;5.68;1.33;;;;;;;31.64;14.21;101718.31;5054379;28;20203;-60
2023/03/28 10:10:09;;;;;;;5.80;1.50;;;;;;;31.64;13.88;101709.28;5052809;28;20306;-60
2023/03/28 10:12:40;;;;;;;5.47;1.83;;;;;;;30.94;14.76;101713.59;5056528;28;20203;-60
2023/03/28 10:15:30;;;;;;;4.88;1.40;;;;;;;30.74;14.41;101707.81;5053655;28;20203;-60
2023/03/28 10:18:01;;;;;;;9.15;1.98;;;;;;;30.74;14.35;101707.81;5055741;28;20203;-60
2023/03/28 10:20:35;;;;;;;5.10;1.63;;;;;;;31.29;14.47;101704.19;5053468;28;20300;-59
2023/03/28 10:23:05;;;;;;;5.05;1.25;;;;;;;32.20;14.17;101702.38;5054542;28;20202;-60
2023/03/28 10:25:37;;;;;;;4.55;1.50;;;;;;;31.97;14.22;101709.03;5056743;28;20207;-60
2023/03/28 10:28:07;;;;;;;5.57;1.33;;;;;;;31.65;14.24;101706.28;5055889;28;20286;-61
2023/03/28 10:30:36;;;;;;;3.90;1.25;;;;;;;31.23;14.18;101699.72;5056006;28;20215;-60
2023/03/28 10:33:20;;;;;;;5.80;2.03;;;;;;;30.76;14.90;101708.41;5056389;28;20675;-61
2023/03/28 10:35:56;;;;;;;6.60;1.98;;;;;;;30.84;14.85;101699.75;5054011;28;20321;-60
2023/03/28 10:38:27;;;;;;;6.10;1.48;;;;;;;29.83;15.12;101698.09;5053922;28;20235;-61
2023/03/28 10:41:01;;;;;;;4.65;1.38;;;;;;;29.58;15.86;101695.72;5057148;28;20852;-60
2023/03/28 10:43:34;;;;;;;6.07;1.98;;;;;;;29.84;15.53;101702.47;5055488;28;20284;-60
2023/03/28 10:46:07;;;;;;;7.20;2.17;;;;;;;31.30;14.29;101687.50;5055731;28;20208;-60
2023/03/28 10:48:38;;;;;;;6.32;1.95;;;;;;;32.02;14.27;101683.53;5054207;28;20207;-60
2023/03/28 10:51:15;;;;;;;5.60;1.77;;;;;;;30.76;14.15;101677.47;5053056;28;20299;-60
2023/03/28 10:54:21;;;;;;;3.80;1.50;;;;;;;30.39;14.16;101679.91;5056004;28;20573;-60
2023/03/28 10:56:54;;;;;;;5.82;1.70;;;;;;;29.49;15.41;101695.28;5055264;28;20338;-59
2023/03/28 10:59:45;;;;;;;3.70;1.17;;;;;;;29.46;15.28;101694.97;5057145;28;20249;-59
2023/03/28 11:02:39;;;;;;;4.25;1.25;;;;;;;28.55;16.06;101688.31;5055941;28;20212;-59
2023/03/28 11:05:27;;;;;;;5.10;1.67;;;;;;;28.20;16.56;101685.56;5017337;28;20216;-59
2023/03/28 11:08:02;;;;;;;6.57;2.97;;;;;;;27.63;16.96;101679.72;5055019;28;20235;-61
2023/03/28 11:10:38;;;;;;;5.30;1.60;;;;;;;27.91;16.93;101681.81;5052212;28;20322;-60
2023/03/28 11:13:23;;;;;;;5.68;1.40;;;;;;;28.13;16.21;101670.34;5052742;28;20325;-61
2023/03/28 11:15:58;;;;;;;4.85;1.30;;;;;;;28.89;16.39;101661.25;5053887;28;20588;-60
2023/03/28 11:18:52;;;;;;;8.27;1.48;;;;;;;29.22;15.82;101660.53;5052595;28;20203;-59
2023/03/28 11:21:29;;;;;;;4.65;1.30;;;;;;;28.86;15.64;101657.09;5057825;28;20661;-60
2023/03/28 11:24:07;;;;;;;7.40;1.70;;;;;;;28.54;15.97;101656.63;5059961;28;20290;-60
2023/03/28 11:26:44;;;;;;;5.13;1.38;;;;;;;28.08;16.50;101655.53;5055624;28;20212;-61
2023/03/28 11:29:28;;;;;;;7.13;1.55;;;;;;;28.29;16.83;101653.31;5057846;28;20656;-60
2023/03/28 11:32:17;;;;;;;7.10;1.80;;;;;;;28.69;16.84;101643.31;5060179;28;20211;-61
2023/03/28 11:34:57;;;;;;;7.22;1.55;;;;;;;29.02;16.16;101639.16;5059784;28;20599;-61
2023/03/28 11:37:28;;;;;;;5.03;1.30;;;;;;;28.53;16.00;101633.16;5058803;28;20239;-59
2023/03/28 11:40:01;;;;;;;3.97;1.38;;;;;;;27.67;16.74;101631.03;5059714;28;20245;-60
2023/03/28 11:42:40;;;;;;;5.70;1.90;;;;;;;27.22;17.73;101636.06;5058285;28;20203;-60
2023/03/28 11:45:21;;;;;;;5.20;1.48;;;;;;;27.70;17.14;101634.16;5060043;28;20250;-60
2023/03/28 11:48:11;;;;;;;6.32;1.80;;;;;;;27.61;17.62;101612.91;5057621;28;20529;-61
2023/03/28 11:50:49;;;;;;;4.32;1.42;;;;;;;27.77;16.86;101617.69;5059915;28;20313;-62
2023/03/28 11:53:25;;;;;;;4.57;1.40;;;;;;;27.00;17.08;101611.22;5058422;28;20220;-60
2023/03/28 11:56:01;;;;;;;6.60;2.35;;;;;;;25.06;18.76;101605.13;5055848;28;20238;-60